createdAt,value
2022-09-13T00:00:08.752Z,1.00
2022-09-13T00:02:00.700Z,1.00
2022-09-13T00:03:33.578Z,1.00
2022-09-13T00:05:05.975Z,1.00
2022-09-13T00:06:38.115Z,1.00
2022-09-13T00:08:10.649Z,1.00
2022-09-13T00:09:43.154Z,1.00
2022-09-13T00:11:18.767Z,1.00
2022-09-13T00:12:52.076Z,1.00
2022-09-13T00:14:26.670Z,1.00
2022-09-13T00:16:01.191Z,1.00
2022-09-13T00:17:33.323Z,1.00
2022-09-13T00:19:05.384Z,1.00
2022-09-13T00:20:37.864Z,1.00
2022-09-13T00:22:10.070Z,1.00
2022-09-13T00:23:46.715Z,1.00
2022-09-13T00:25:19.073Z,1.00
2022-09-13T00:26:51.091Z,1.00
2022-09-13T00:28:23.300Z,1.00
2022-09-13T00:29:55.402Z,1.00
2022-09-13T00:31:28.663Z,1.00
2022-09-13T00:33:04.676Z,1.00
2022-09-13T00:34:37.220Z,1.00
2022-09-13T00:36:11.625Z,1.00
2022-09-13T00:37:43.693Z,1.00
2022-09-13T00:39:15.795Z,1.00
2022-09-13T00:40:48.036Z,1.00
2022-09-13T00:42:26.362Z,1.00
2022-09-13T00:44:01.008Z,1.00
2022-09-13T00:45:33.199Z,1.00
2022-09-13T00:47:05.687Z,1.00
2022-09-13T00:48:37.878Z,1.00
2022-09-13T00:50:23.109Z,1.00
2022-09-13T00:51:59.606Z,1.00
2022-09-13T00:53:36.280Z,1.00
2022-09-13T00:55:19.647Z,1.00
2022-09-13T00:56:55.694Z,1.00
2022-09-13T00:58:33.903Z,1.00
2022-09-13T01:00:13.550Z,1.00
2022-09-13T01:01:49.728Z,1.00
2022-09-13T01:03:26.203Z,1.00
2022-09-13T01:04:58.656Z,1.00
2022-09-13T01:06:34.265Z,1.00
2022-09-13T01:08:12.732Z,1.00
2022-09-13T01:09:47.679Z,1.00
2022-09-13T01:11:50.138Z,1.00
2022-09-13T01:13:28.688Z,1.00
2022-09-13T01:15:04.226Z,1.00
2022-09-13T01:16:36.426Z,1.00
2022-09-13T01:18:10.122Z,1.00
2022-09-13T01:19:42.726Z,1.00
2022-09-13T01:21:45.859Z,1.00
2022-09-13T01:23:42.810Z,1.00
2022-09-13T01:25:15.063Z,1.00
2022-09-13T01:27:08.308Z,1.00
2022-09-13T01:28:40.282Z,1.00
2022-09-13T01:30:23.691Z,1.00
2022-09-13T01:32:18.086Z,1.00
2022-09-13T01:34:01.955Z,1.00
2022-09-13T01:36:08.585Z,1.00
2022-09-13T01:38:00.065Z,1.00
2022-09-13T01:40:02.634Z,1.00
2022-09-13T01:41:46.970Z,1.00
2022-09-13T01:43:32.062Z,1.00
2022-09-13T01:45:22.156Z,1.00
2022-09-13T01:47:00.268Z,1.00
2022-09-13T01:49:02.820Z,1.00
2022-09-13T01:51:00.560Z,1.00
2022-09-13T01:52:38.690Z,1.00
2022-09-13T01:54:24.775Z,1.00
2022-09-13T01:56:10.426Z,1.00
2022-09-13T01:58:00.183Z,1.00
2022-09-13T01:59:55.697Z,1.00
2022-09-13T02:01:38.945Z,1.00
2022-09-13T02:03:18.423Z,1.00
2022-09-13T02:04:55.079Z,1.00
2022-09-13T02:06:32.627Z,1.00
2022-09-13T02:08:20.619Z,1.00
2022-09-13T02:10:00.628Z,1.00
2022-09-13T02:11:35.026Z,1.00
2022-09-13T02:13:13.239Z,1.00
2022-09-13T02:14:53.398Z,1.00
2022-09-13T02:16:34.273Z,1.00
2022-09-13T02:18:13.951Z,1.00
2022-09-13T02:19:55.054Z,1.00
2022-09-13T02:21:33.118Z,1.00
2022-09-13T02:23:12.371Z,1.00
2022-09-13T02:24:48.355Z,1.00
2022-09-13T02:26:24.427Z,1.00
2022-09-13T02:28:02.027Z,1.00
2022-09-13T02:29:37.639Z,1.00
2022-09-13T02:31:12.075Z,1.00
2022-09-13T02:32:44.389Z,1.00
2022-09-13T02:34:23.114Z,1.00
2022-09-13T02:36:01.225Z,1.00
2022-09-13T02:37:36.058Z,1.00
2022-09-13T02:39:15.124Z,1.00
2022-09-13T02:40:53.804Z,1.00
2022-09-13T02:42:37.890Z,1.00
2022-09-13T02:44:28.931Z,1.00
2022-09-13T02:46:14.931Z,1.00
2022-09-13T02:47:50.005Z,1.00
2022-09-13T02:49:23.599Z,1.00
2022-09-13T02:51:17.928Z,1.00
2022-09-13T02:53:02.770Z,1.00
2022-09-13T02:54:43.841Z,1.00
2022-09-13T02:56:45.805Z,1.00
2022-09-13T02:58:48.734Z,1.00
2022-09-13T03:00:21.825Z,1.00
2022-09-13T03:01:59.784Z,1.00
2022-09-13T03:03:32.090Z,1.00
2022-09-13T03:05:04.329Z,1.00
2022-09-13T03:06:38.074Z,1.00
2022-09-13T03:08:13.521Z,1.00
2022-09-13T03:09:53.304Z,1.00
2022-09-13T03:12:07.084Z,1.00
2022-09-13T03:13:59.348Z,1.00
2022-09-13T03:15:44.136Z,1.00
2022-09-13T03:18:00.842Z,1.00
2022-09-13T03:20:06.475Z,1.00
2022-09-13T03:22:07.608Z,1.00
2022-09-13T03:24:07.852Z,1.00
2022-09-13T03:25:42.820Z,1.00
2022-09-13T03:27:50.500Z,1.00
2022-09-13T03:29:42.468Z,1.00
2022-09-13T03:31:28.069Z,1.00
2022-09-13T03:33:11.772Z,1.00
2022-09-13T03:35:21.362Z,1.00
2022-09-13T03:37:22.884Z,1.00
2022-09-13T03:39:16.656Z,1.00
2022-09-13T03:40:52.384Z,1.10
2022-09-13T03:42:27.914Z,16.90
2022-09-13T03:44:05.087Z,36.30
2022-09-13T03:45:42.776Z,53.90
2022-09-13T03:47:17.650Z,50.00
2022-09-13T03:48:51.187Z,59.90
2022-09-13T03:50:26.419Z,77.00
2022-09-13T03:51:59.193Z,79.00
2022-09-13T03:53:35.791Z,78.10
2022-09-13T03:55:08.247Z,63.70
2022-09-13T03:56:41.066Z,47.70
2022-09-13T03:58:15.358Z,46.40
2022-09-13T03:59:49.947Z,59.10
2022-09-13T04:01:24.278Z,92.10
2022-09-13T04:02:56.671Z,99.90
2022-09-13T04:04:28.725Z,99.90
2022-09-13T04:06:00.777Z,99.90
2022-09-13T04:07:33.367Z,99.90
2022-09-13T04:09:05.566Z,99.90
2022-09-13T04:10:37.832Z,99.90
2022-09-13T04:12:14.144Z,99.90
2022-09-13T04:13:46.126Z,99.90
2022-09-13T04:15:18.339Z,99.90
2022-09-13T04:16:50.371Z,99.90
2022-09-13T04:18:22.427Z,99.90
2022-09-13T04:19:54.431Z,99.90
2022-09-13T04:21:26.677Z,99.90
2022-09-13T04:22:58.922Z,99.90
2022-09-13T04:24:31.745Z,99.90
2022-09-13T04:26:05.188Z,99.90
2022-09-13T04:27:37.426Z,99.90
2022-09-13T04:29:09.631Z,99.90
2022-09-13T04:30:47.827Z,99.90
2022-09-13T04:32:19.926Z,99.90
2022-09-13T04:33:52.127Z,99.90
2022-09-13T04:35:24.157Z,1.00
2022-09-13T04:36:56.412Z,1.00
2022-09-13T04:38:29.066Z,1.00
2022-09-13T04:40:01.631Z,1.00
2022-09-13T04:41:34.579Z,1.00
2022-09-13T04:43:06.775Z,1.00
2022-09-13T04:44:39.119Z,1.00
2022-09-13T04:46:11.363Z,1.00
2022-09-13T04:47:43.507Z,1.00
2022-09-13T04:49:17.310Z,1.00
2022-09-13T04:50:50.496Z,1.00
2022-09-13T04:52:22.823Z,1.00
2022-09-13T04:53:55.998Z,1.00
2022-09-13T04:55:28.808Z,1.00
2022-09-13T04:57:00.950Z,1.00
2022-09-13T04:58:33.462Z,1.00
2022-09-13T05:00:06.346Z,1.00
2022-09-13T05:01:38.686Z,1.00
2022-09-13T05:03:51.694Z,1.00
2022-09-13T05:05:25.825Z,1.00
2022-09-13T05:06:59.016Z,1.00
2022-09-13T05:08:31.675Z,1.00
2022-09-13T05:10:04.165Z,1.00
2022-09-13T05:11:36.512Z,1.00
2022-09-13T05:13:08.534Z,1.00
2022-09-13T05:14:40.755Z,1.00
2022-09-13T05:16:12.865Z,1.00
2022-09-13T05:17:45.218Z,1.00
2022-09-13T05:19:17.355Z,1.00
2022-09-13T05:20:49.357Z,1.00
2022-09-13T05:22:21.529Z,1.00
2022-09-13T05:23:55.014Z,1.00
2022-09-13T05:25:27.052Z,1.00
2022-09-13T05:26:59.135Z,1.00
2022-09-13T05:28:34.120Z,1.00
2022-09-13T05:30:07.469Z,1.00
2022-09-13T05:31:41.868Z,1.00
2022-09-13T05:33:13.915Z,1.00
2022-09-13T05:34:46.056Z,1.00
2022-09-13T05:36:18.520Z,1.00
2022-09-13T05:37:50.546Z,1.00
2022-09-13T05:39:39.727Z,1.00
2022-09-13T05:41:14.885Z,1.00
2022-09-13T05:42:47.142Z,1.00
2022-09-13T05:44:19.206Z,1.00
2022-09-13T05:45:51.610Z,1.00
2022-09-13T05:47:23.814Z,1.00
2022-09-13T05:48:59.554Z,1.00
2022-09-13T05:50:56.765Z,1.00
2022-09-13T05:52:24.175Z,1.00
2022-09-13T05:53:57.879Z,1.00
2022-09-13T05:55:30.980Z,1.00
2022-09-13T05:57:03.144Z,1.00
2022-09-13T05:58:39.494Z,1.00
2022-09-13T06:00:12.270Z,1.00
2022-09-13T06:01:45.266Z,1.00
2022-09-13T06:03:17.499Z,1.00
2022-09-13T06:04:50.823Z,1.00
2022-09-13T06:06:24.399Z,1.00
2022-09-13T06:07:56.748Z,1.00
2022-09-13T06:09:30.120Z,1.00
2022-09-13T06:11:05.627Z,1.00
2022-09-13T06:12:38.276Z,1.00
2022-09-13T06:14:10.370Z,1.00
2022-09-13T06:15:43.449Z,1.00
2022-09-13T06:17:15.623Z,1.00
2022-09-13T06:18:48.113Z,1.00
2022-09-13T06:20:20.329Z,1.00
2022-09-13T06:21:52.486Z,1.00
2022-09-13T06:23:24.612Z,1.00
2022-09-13T06:24:56.806Z,1.00
2022-09-13T06:26:28.897Z,1.00
2022-09-13T06:28:01.058Z,1.00
2022-09-13T06:29:33.263Z,1.00
2022-09-13T06:31:11.138Z,1.00
2022-09-13T06:32:43.317Z,1.00
2022-09-13T06:34:16.262Z,1.00
2022-09-13T06:35:48.400Z,1.00
2022-09-13T06:37:22.015Z,1.00
2022-09-13T06:38:54.502Z,1.00
2022-09-13T06:40:26.743Z,1.00
2022-09-13T06:41:58.910Z,1.00
2022-09-13T06:43:31.466Z,1.00
2022-09-13T06:45:04.171Z,1.00
2022-09-13T06:46:37.048Z,1.00
2022-09-13T06:48:09.227Z,1.00
2022-09-13T06:49:41.892Z,1.00
2022-09-13T06:51:19.511Z,1.00
2022-09-13T06:52:51.718Z,1.00
2022-09-13T06:54:23.890Z,1.00
2022-09-13T06:56:07.964Z,1.00
2022-09-13T06:57:40.040Z,1.00
2022-09-13T06:59:12.214Z,1.00
2022-09-13T07:00:44.267Z,1.00
2022-09-13T07:02:16.620Z,1.00
2022-09-13T07:03:54.693Z,1.00
2022-09-13T07:05:27.263Z,1.00
2022-09-13T07:06:59.928Z,1.00
2022-09-13T07:08:32.242Z,1.00
2022-09-13T07:10:04.807Z,1.00
2022-09-13T07:11:39.167Z,1.00
2022-09-13T07:13:11.433Z,1.00
2022-09-13T07:14:43.726Z,1.00
2022-09-13T07:16:16.075Z,1.00
2022-09-13T07:17:48.148Z,1.00
2022-09-13T07:19:23.021Z,1.00
2022-09-13T07:21:07.023Z,1.00
2022-09-13T07:22:39.106Z,1.00
2022-09-13T07:24:11.734Z,1.00
2022-09-13T07:25:43.874Z,1.00
2022-09-13T07:27:16.808Z,1.00
2022-09-13T07:28:52.159Z,1.00
2022-09-13T07:30:25.783Z,1.00
2022-09-13T07:31:58.633Z,1.00
2022-09-13T07:33:30.919Z,1.00
2022-09-13T07:35:03.203Z,1.00
2022-09-13T07:36:36.603Z,1.00
2022-09-13T07:38:09.110Z,1.00
2022-09-13T07:39:41.413Z,1.00
2022-09-13T07:41:18.897Z,1.00
2022-09-13T07:42:50.943Z,1.00
2022-09-13T07:44:23.116Z,1.00
2022-09-13T07:46:05.006Z,1.00
2022-09-13T07:47:37.330Z,1.00
2022-09-13T07:49:14.048Z,1.00
2022-09-13T07:50:57.259Z,1.00
2022-09-13T07:52:29.469Z,1.00
2022-09-13T07:54:04.524Z,1.00
2022-09-13T07:55:36.550Z,1.00
2022-09-13T07:57:08.603Z,1.00
2022-09-13T07:58:43.530Z,1.00
2022-09-13T08:00:16.772Z,1.00
2022-09-13T08:01:50.976Z,1.00
2022-09-13T08:03:23.200Z,1.00
2022-09-13T08:04:55.452Z,1.00
2022-09-13T08:06:29.925Z,1.00
2022-09-13T08:08:02.338Z,1.00
2022-09-13T08:09:34.455Z,1.00
2022-09-13T08:11:07.363Z,1.00
2022-09-13T08:12:39.528Z,1.00
2022-09-13T08:14:13.927Z,1.00
2022-09-13T08:15:46.158Z,1.00
2022-09-13T08:17:18.584Z,1.00
2022-09-13T08:18:53.606Z,1.00
2022-09-13T08:20:26.023Z,1.00
2022-09-13T08:21:58.083Z,1.00
2022-09-13T08:23:30.635Z,1.00
2022-09-13T08:25:03.127Z,1.00
2022-09-13T08:26:36.477Z,1.00
2022-09-13T08:28:14.743Z,1.00
2022-09-13T08:29:46.957Z,1.00
2022-09-13T08:31:20.570Z,1.00
2022-09-13T08:32:52.731Z,1.00
2022-09-13T08:34:24.807Z,1.00
2022-09-13T08:35:58.484Z,1.00
2022-09-13T08:37:34.322Z,1.00
2022-09-13T08:39:07.086Z,1.00
2022-09-13T08:40:41.917Z,1.00
2022-09-13T08:42:44.055Z,1.00
2022-09-13T08:44:26.583Z,1.00
2022-09-13T08:46:12.926Z,1.00
2022-09-13T08:47:52.142Z,1.00
2022-09-13T08:49:28.176Z,1.00
2022-09-13T08:51:05.801Z,1.00
2022-09-13T08:53:08.854Z,1.00
2022-09-13T08:54:41.460Z,1.00
2022-09-13T08:56:21.407Z,1.00
2022-09-13T08:58:17.306Z,1.00
2022-09-13T09:00:33.002Z,1.00
2022-09-13T09:02:34.605Z,1.00
2022-09-13T09:04:26.437Z,1.00
2022-09-13T09:05:59.869Z,1.00
2022-09-13T09:07:37.906Z,1.00
2022-09-13T09:09:19.440Z,1.00
2022-09-13T09:10:55.879Z,1.00
2022-09-13T09:12:59.566Z,1.00
2022-09-13T09:14:44.331Z,1.00
2022-09-13T09:16:41.163Z,1.00
2022-09-13T09:18:20.991Z,1.00
2022-09-13T09:20:03.364Z,1.00
2022-09-13T09:21:36.851Z,1.00
2022-09-13T09:23:16.749Z,1.00
2022-09-13T09:24:57.080Z,1.00
2022-09-13T09:26:31.321Z,1.00
2022-09-13T09:28:12.214Z,1.00
2022-09-13T09:29:48.919Z,1.00
2022-09-13T09:31:39.359Z,1.00
2022-09-13T09:33:30.387Z,1.00
2022-09-13T09:35:24.183Z,1.00
2022-09-13T09:36:59.731Z,1.00
2022-09-13T09:38:43.285Z,1.00
2022-09-13T09:40:17.415Z,1.00
2022-09-13T09:41:49.654Z,1.00
2022-09-13T09:43:31.093Z,1.00
2022-09-13T09:45:18.450Z,1.00
2022-09-13T09:47:14.163Z,1.00
2022-09-13T09:48:52.912Z,1.00
2022-09-13T09:50:34.210Z,1.00
2022-09-13T09:52:11.218Z,1.00
2022-09-13T09:53:48.674Z,1.00
2022-09-13T09:55:28.821Z,1.00
2022-09-13T09:57:01.753Z,1.00
2022-09-13T09:58:42.952Z,1.00
2022-09-13T10:00:15.902Z,1.00
2022-09-13T10:01:48.273Z,1.00
2022-09-13T10:03:25.146Z,1.00
2022-09-13T10:05:01.157Z,1.00
2022-09-13T10:06:33.456Z,1.00
2022-09-13T10:08:07.691Z,1.00
2022-09-13T10:09:39.831Z,1.00
2022-09-13T10:11:12.572Z,1.00
2022-09-13T10:12:50.847Z,1.00
2022-09-13T10:14:46.810Z,1.00
2022-09-13T10:16:26.403Z,1.00
2022-09-13T10:18:40.038Z,1.00
2022-09-13T10:20:14.531Z,1.00
2022-09-13T10:22:00.812Z,1.00
2022-09-13T10:23:35.256Z,1.00
2022-09-13T10:25:37.120Z,1.00
2022-09-13T10:27:39.634Z,1.00
2022-09-13T10:29:17.732Z,1.00
2022-09-13T10:31:18.062Z,1.00
2022-09-13T10:32:57.654Z,1.00
2022-09-13T10:34:35.242Z,1.00
2022-09-13T10:36:48.155Z,1.00
2022-09-13T10:38:44.066Z,1.00
2022-09-13T10:40:24.716Z,1.00
2022-09-13T10:42:08.215Z,1.00
2022-09-13T10:43:40.636Z,1.00
2022-09-13T10:45:23.443Z,1.00
2022-09-13T10:46:57.306Z,1.00
2022-09-13T10:48:31.861Z,1.00
2022-09-13T10:50:35.722Z,1.00
2022-09-13T10:52:33.633Z,1.00
2022-09-13T10:54:15.181Z,1.00
2022-09-13T10:55:55.125Z,1.00
2022-09-13T10:57:34.622Z,1.00
2022-09-13T10:59:30.778Z,1.00
2022-09-13T11:01:18.434Z,1.00
2022-09-13T11:03:09.082Z,1.00
2022-09-13T11:04:56.958Z,1.00
2022-09-13T11:06:41.423Z,1.00
2022-09-13T11:08:55.460Z,1.00
2022-09-13T11:11:01.371Z,1.00
2022-09-13T11:12:39.743Z,1.00
2022-09-13T11:14:17.606Z,1.00
2022-09-13T11:16:23.158Z,1.00
2022-09-13T11:18:20.130Z,1.00
2022-09-13T11:20:13.485Z,1.00
2022-09-13T11:22:06.001Z,1.00
2022-09-13T11:23:47.063Z,1.00
2022-09-13T11:25:40.712Z,1.00
2022-09-13T11:27:31.879Z,1.00
2022-09-13T11:29:15.852Z,1.00
2022-09-13T11:30:50.638Z,1.00
2022-09-13T11:32:35.235Z,1.00
2022-09-13T11:34:42.380Z,1.00
2022-09-13T11:36:51.895Z,1.00
2022-09-13T11:38:36.920Z,1.00
2022-09-13T11:40:27.274Z,1.00
2022-09-13T11:42:20.747Z,1.00
2022-09-13T11:44:24.514Z,1.00
2022-09-13T11:46:16.922Z,1.00
2022-09-13T11:48:13.072Z,1.00
2022-09-13T11:50:17.198Z,1.00
2022-09-13T11:52:04.455Z,1.00
2022-09-13T11:53:43.073Z,1.00
2022-09-13T11:55:33.553Z,1.00
2022-09-13T11:57:11.196Z,1.00
2022-09-13T11:58:51.723Z,1.00
2022-09-13T12:00:32.751Z,1.00
2022-09-13T12:02:40.144Z,1.00
2022-09-13T12:04:27.130Z,1.00
2022-09-13T12:06:05.396Z,1.00
2022-09-13T12:07:43.506Z,1.00
2022-09-13T12:09:21.567Z,1.00
2022-09-13T12:11:04.839Z,1.00
2022-09-13T12:12:37.668Z,1.00
2022-09-13T12:14:17.800Z,1.00
2022-09-13T12:15:53.959Z,1.00
2022-09-13T12:17:36.049Z,1.00
2022-09-13T12:19:19.371Z,1.00
2022-09-13T12:21:00.242Z,1.00
2022-09-13T12:22:35.019Z,1.00
2022-09-13T12:24:15.442Z,1.00
2022-09-13T12:25:56.025Z,1.00
2022-09-13T12:27:40.213Z,1.00
2022-09-13T12:29:24.187Z,1.00
2022-09-13T12:31:01.275Z,1.00
2022-09-13T12:32:34.017Z,1.00
2022-09-13T12:34:10.327Z,1.00
2022-09-13T12:35:50.111Z,1.00
2022-09-13T12:37:40.547Z,1.00
2022-09-13T12:39:24.030Z,1.00
2022-09-13T12:41:31.270Z,1.00
2022-09-13T12:43:15.714Z,1.00
2022-09-13T12:44:50.975Z,1.00
2022-09-13T12:46:38.275Z,1.00
2022-09-13T12:48:31.835Z,1.00
2022-09-13T12:52:36.023Z,1.00
2022-09-13T12:54:33.023Z,1.00
2022-09-13T12:56:11.375Z,1.00
2022-09-13T12:57:59.612Z,1.00
2022-09-13T13:00:09.897Z,1.00
2022-09-13T13:01:48.859Z,1.00
2022-09-13T13:03:21.743Z,1.00
2022-09-13T13:04:58.685Z,1.00
2022-09-13T13:06:38.515Z,1.00
2022-09-13T13:08:20.087Z,1.00
2022-09-13T13:09:54.779Z,1.00
2022-09-13T13:11:31.432Z,1.00
2022-09-13T13:13:37.980Z,1.00
2022-09-13T13:15:30.514Z,1.00
2022-09-13T13:18:04.824Z,1.00
2022-09-13T13:19:37.218Z,1.00
2022-09-13T13:21:28.696Z,1.00
2022-09-13T13:23:25.539Z,1.00
2022-09-13T13:24:57.663Z,1.00
2022-09-13T13:26:42.145Z,1.00
2022-09-13T13:28:45.568Z,1.00
2022-09-13T13:30:42.431Z,1.00
2022-09-13T13:32:14.811Z,1.00
2022-09-13T13:33:53.112Z,1.00
2022-09-13T13:35:30.291Z,1.00
2022-09-13T13:37:26.626Z,1.00
2022-09-13T13:39:01.235Z,1.00
2022-09-13T13:40:33.919Z,1.00
2022-09-13T13:42:25.648Z,1.00
2022-09-13T13:43:58.354Z,1.00
2022-09-13T13:45:31.410Z,1.00
2022-09-13T13:47:09.513Z,1.00
2022-09-13T13:48:42.239Z,1.00
2022-09-13T13:50:19.550Z,1.00
2022-09-13T13:52:13.368Z,1.00
2022-09-13T13:53:50.013Z,1.00
2022-09-13T13:55:41.939Z,1.00
2022-09-13T13:57:29.229Z,1.00
2022-09-13T13:59:19.452Z,1.00
2022-09-13T14:00:53.973Z,1.00
2022-09-13T14:02:38.540Z,1.00
2022-09-13T14:04:29.164Z,1.00
2022-09-13T14:06:05.806Z,1.00
2022-09-13T14:07:44.152Z,1.00
2022-09-13T14:10:11.939Z,1.00
2022-09-13T14:12:21.661Z,1.00
2022-09-13T14:13:59.967Z,1.00
2022-09-13T14:16:01.018Z,1.00
2022-09-13T14:17:53.818Z,1.00
2022-09-13T14:19:59.055Z,1.00
2022-09-13T14:21:31.537Z,1.00
2022-09-13T14:23:19.544Z,1.00
2022-09-13T14:24:57.005Z,1.00
2022-09-13T14:26:29.128Z,1.00
2022-09-13T14:28:02.494Z,1.00
2022-09-13T14:29:34.590Z,1.00
2022-09-13T14:31:07.555Z,1.00
2022-09-13T14:32:45.240Z,1.00
2022-09-13T14:34:32.518Z,1.00
2022-09-13T14:36:17.923Z,1.00
2022-09-13T14:37:50.360Z,1.00
2022-09-13T14:39:22.900Z,1.00
2022-09-13T14:40:59.579Z,1.00
2022-09-13T14:42:46.480Z,1.00
2022-09-13T14:44:28.441Z,1.00
2022-09-13T14:46:12.570Z,1.00
2022-09-13T14:48:01.165Z,1.00
2022-09-13T14:49:39.966Z,1.00
2022-09-13T14:51:20.707Z,1.00
2022-09-13T14:52:58.707Z,1.00
2022-09-13T14:54:48.520Z,1.00
2022-09-13T14:56:44.439Z,1.00
2022-09-13T14:58:29.673Z,1.00
2022-09-13T15:00:25.545Z,1.00
2022-09-13T15:02:02.850Z,1.00
2022-09-13T15:03:36.422Z,1.00
2022-09-13T15:05:16.315Z,1.00
2022-09-13T15:07:07.379Z,1.00
2022-09-13T15:08:45.186Z,1.00
2022-09-13T15:10:22.433Z,1.00
2022-09-13T15:11:54.466Z,1.00
2022-09-13T15:13:26.822Z,1.00
2022-09-13T15:15:41.787Z,1.00
2022-09-13T15:17:14.551Z,1.00
2022-09-13T15:18:46.627Z,1.00
2022-09-13T15:20:19.536Z,1.00
2022-09-13T15:21:51.672Z,1.00
2022-09-13T15:23:35.317Z,1.00
2022-09-13T15:25:21.436Z,1.00
2022-09-13T15:27:15.091Z,1.00
2022-09-13T15:28:51.743Z,1.00
2022-09-13T15:30:41.341Z,1.00
2022-09-13T15:32:22.040Z,1.00
2022-09-13T15:34:29.979Z,1.00
2022-09-13T15:36:20.142Z,1.00
2022-09-13T15:38:14.947Z,1.00
2022-09-13T15:39:49.989Z,1.00
2022-09-13T15:41:25.001Z,1.00
2022-09-13T15:42:57.856Z,1.00
2022-09-13T15:44:30.250Z,1.00
2022-09-13T15:46:02.428Z,1.00
2022-09-13T15:47:34.540Z,1.00
2022-09-13T15:49:06.948Z,1.00
2022-09-13T15:50:39.075Z,1.00
2022-09-13T15:52:11.167Z,1.00
2022-09-13T15:53:44.767Z,1.00
2022-09-13T15:55:17.142Z,1.00
2022-09-13T15:56:52.998Z,1.00
2022-09-13T15:58:25.009Z,1.00
2022-09-13T16:00:01.462Z,1.00
2022-09-13T16:01:36.684Z,1.00
2022-09-13T16:03:09.198Z,1.00
2022-09-13T16:04:41.465Z,1.00
2022-09-13T16:06:13.844Z,1.00
2022-09-13T16:07:46.670Z,1.00
2022-09-13T16:09:24.551Z,1.00
2022-09-13T16:10:56.667Z,1.00
2022-09-13T16:12:28.999Z,1.00
2022-09-13T16:14:01.322Z,1.00
2022-09-13T16:15:33.501Z,1.00
2022-09-13T16:17:18.490Z,1.00
2022-09-13T16:18:50.742Z,1.00
2022-09-13T16:20:23.156Z,1.00
2022-09-13T16:21:55.266Z,1.00
2022-09-13T16:23:27.403Z,1.00
2022-09-13T16:24:59.491Z,1.00
2022-09-13T16:26:34.257Z,1.00
2022-09-13T16:28:07.339Z,1.00
2022-09-13T16:29:39.970Z,1.00
2022-09-13T16:31:12.183Z,1.00
2022-09-13T16:32:44.538Z,1.00
2022-09-13T16:34:16.733Z,1.00
2022-09-13T16:35:48.779Z,1.00
2022-09-13T16:37:21.472Z,1.00
2022-09-13T16:38:53.772Z,1.00
2022-09-13T16:40:26.175Z,1.00
2022-09-13T16:41:58.516Z,1.00
2022-09-13T16:43:30.772Z,1.00
2022-09-13T16:45:03.667Z,1.00
2022-09-13T16:46:36.481Z,1.00
2022-09-13T16:48:09.060Z,1.00
2022-09-13T16:49:41.131Z,1.00
2022-09-13T16:51:13.523Z,1.00
2022-09-13T16:52:48.167Z,1.00
2022-09-13T16:54:20.180Z,1.00
2022-09-13T16:55:52.271Z,1.00
2022-09-13T16:57:24.680Z,1.00
2022-09-13T16:58:57.402Z,1.00
2022-09-13T17:00:30.208Z,1.00
2022-09-13T17:02:03.709Z,1.00
2022-09-13T17:03:37.612Z,1.00
2022-09-13T17:05:11.014Z,1.00
2022-09-13T17:06:43.107Z,1.00
2022-09-13T17:08:15.292Z,1.00
2022-09-13T17:09:47.724Z,1.00
2022-09-13T17:11:21.992Z,1.00
2022-09-13T17:12:54.014Z,1.00
2022-09-13T17:14:26.316Z,1.00
2022-09-13T17:15:59.270Z,1.00
2022-09-13T17:17:36.102Z,1.00
2022-09-13T17:19:13.631Z,1.00
2022-09-13T17:20:47.855Z,1.00
2022-09-13T17:22:20.231Z,1.00
2022-09-13T17:23:52.757Z,1.00
2022-09-13T17:25:25.535Z,1.00
2022-09-13T17:26:58.716Z,1.00
2022-09-13T17:28:30.919Z,1.00
2022-09-13T17:30:05.596Z,1.00
2022-09-13T17:31:37.811Z,1.00
2022-09-13T17:33:10.059Z,1.00
2022-09-13T17:34:42.383Z,1.00
2022-09-13T17:36:15.053Z,1.00
2022-09-13T17:37:47.140Z,1.00
2022-09-13T17:39:19.599Z,1.00
2022-09-13T17:41:03.389Z,1.00
2022-09-13T17:42:36.144Z,1.00
2022-09-13T17:44:08.757Z,1.00
2022-09-13T17:45:40.822Z,1.00
2022-09-13T17:47:13.028Z,1.00
2022-09-13T17:48:45.116Z,1.00
2022-09-13T17:50:17.223Z,1.00
2022-09-13T17:51:49.309Z,1.00
2022-09-13T17:53:21.711Z,1.00
2022-09-13T17:54:54.172Z,1.00
2022-09-13T17:56:34.168Z,1.00
2022-09-13T17:58:06.291Z,1.00
2022-09-13T17:59:38.635Z,1.00
2022-09-13T18:03:02.155Z,1.00
2022-09-13T18:04:39.712Z,1.00
2022-09-13T18:06:14.095Z,1.00
2022-09-13T18:07:46.158Z,1.00
2022-09-13T18:09:18.292Z,1.00
2022-09-13T18:11:11.892Z,1.00
2022-09-13T18:12:42.886Z,1.00
2022-09-13T18:14:16.772Z,1.00
2022-09-13T18:16:00.309Z,1.00
2022-09-13T18:17:32.484Z,1.00
2022-09-13T18:19:04.891Z,1.00
2022-09-13T18:20:40.472Z,1.00
2022-09-13T18:22:13.115Z,1.00
2022-09-13T18:23:46.974Z,1.00
2022-09-13T18:25:23.451Z,1.00
2022-09-13T18:26:55.512Z,1.00
2022-09-13T18:28:28.295Z,1.00
2022-09-13T18:30:01.266Z,1.00
2022-09-13T18:31:35.182Z,1.00
2022-09-13T18:33:10.923Z,1.00
2022-09-13T18:34:44.218Z,1.00
2022-09-13T18:36:17.940Z,1.00
2022-09-13T18:37:50.455Z,1.00
2022-09-13T18:39:23.092Z,1.00
2022-09-13T18:41:06.775Z,1.00
2022-09-13T18:42:40.965Z,1.00
2022-09-13T18:44:15.062Z,1.00
2022-09-13T18:45:57.634Z,1.00
2022-09-13T18:47:29.707Z,1.00
2022-09-13T18:49:03.164Z,1.00
2022-09-13T18:50:35.546Z,1.00
2022-09-13T18:52:07.595Z,1.00
2022-09-13T18:53:40.142Z,1.00
2022-09-13T18:55:12.232Z,1.00
2022-09-13T18:56:45.777Z,1.00
2022-09-13T18:58:18.328Z,1.00
2022-09-13T18:59:50.353Z,1.00
2022-09-13T19:01:24.957Z,1.00
2022-09-13T19:03:11.924Z,1.00
2022-09-13T19:04:45.334Z,1.00
2022-09-13T19:06:23.037Z,1.00
2022-09-13T19:07:56.367Z,1.00
2022-09-13T19:09:29.116Z,1.00
2022-09-13T19:11:01.200Z,1.00
2022-09-13T19:12:33.215Z,1.00
2022-09-13T19:14:06.295Z,1.00
2022-09-13T19:15:39.225Z,1.00
2022-09-13T19:17:11.554Z,1.00
2022-09-13T19:18:44.671Z,1.00
2022-09-13T19:20:16.811Z,1.00
2022-09-13T19:21:49.323Z,1.00
2022-09-13T19:23:21.339Z,1.00
2022-09-13T19:24:55.265Z,1.00
2022-09-13T19:26:33.175Z,1.00
2022-09-13T19:28:06.574Z,1.00
2022-09-13T19:29:38.667Z,1.00
2022-09-13T19:31:12.121Z,1.00
2022-09-13T19:32:44.331Z,1.00
2022-09-13T19:34:19.099Z,1.00
2022-09-13T19:35:51.163Z,1.00
2022-09-13T19:37:24.020Z,1.00
2022-09-13T19:38:57.954Z,1.00
2022-09-13T19:40:32.742Z,1.00
2022-09-13T19:42:05.440Z,1.00
2022-09-13T19:43:38.984Z,1.00
2022-09-13T19:45:11.599Z,1.00
2022-09-13T19:46:44.171Z,1.00
2022-09-13T19:50:08.782Z,1.00
2022-09-13T19:51:42.478Z,1.00
2022-09-13T19:53:14.700Z,1.00
2022-09-13T19:54:46.803Z,1.00
2022-09-13T19:56:19.716Z,1.00
2022-09-13T19:57:52.830Z,1.00
2022-09-13T19:59:25.375Z,1.00
2022-09-13T20:01:03.337Z,1.00
2022-09-13T20:02:35.362Z,1.00
2022-09-13T20:04:10.132Z,1.00
2022-09-13T20:05:42.374Z,1.00
2022-09-13T20:07:14.414Z,1.00
2022-09-13T20:08:46.834Z,1.00
2022-09-13T20:10:18.884Z,1.00
2022-09-13T20:11:52.363Z,1.00
2022-09-13T20:13:24.993Z,1.00
2022-09-13T20:14:57.043Z,1.00
2022-09-13T20:16:32.160Z,1.00
2022-09-13T20:18:05.479Z,1.00
2022-09-13T20:19:41.909Z,1.00
2022-09-13T20:21:16.335Z,1.00
2022-09-13T20:22:48.760Z,1.00
2022-09-13T20:24:21.045Z,1.00
2022-09-13T20:25:53.382Z,1.00
2022-09-13T20:27:30.111Z,1.00
2022-09-13T20:29:05.774Z,1.00
2022-09-13T20:30:38.171Z,1.00
2022-09-13T20:32:11.392Z,1.00
2022-09-13T20:33:43.542Z,1.00
2022-09-13T20:35:15.596Z,1.00
2022-09-13T20:36:48.083Z,1.00
2022-09-13T20:38:21.018Z,1.00
2022-09-13T20:39:53.692Z,1.00
2022-09-13T20:41:26.759Z,1.00
2022-09-13T20:42:59.404Z,1.00
2022-09-13T20:44:31.750Z,1.00
2022-09-13T20:46:05.604Z,1.00
2022-09-13T20:47:37.823Z,1.00
2022-09-13T20:49:11.667Z,1.00
2022-09-13T20:50:43.762Z,1.00
2022-09-13T20:52:15.913Z,1.00
2022-09-13T20:53:52.587Z,1.00
2022-09-13T20:55:26.395Z,1.00
2022-09-13T20:56:58.440Z,1.00
2022-09-13T20:58:30.988Z,1.00
2022-09-13T21:00:04.499Z,1.00
2022-09-13T21:01:36.822Z,1.00
2022-09-13T21:03:09.639Z,1.00
2022-09-13T21:04:41.661Z,1.00
2022-09-13T21:06:13.792Z,1.00
2022-09-13T21:08:04.436Z,1.00
2022-09-13T21:09:36.498Z,1.00
2022-09-13T21:11:13.989Z,1.00
2022-09-13T21:12:51.051Z,1.00
2022-09-13T21:14:23.338Z,1.00
2022-09-13T21:15:55.574Z,1.00
2022-09-13T21:17:27.876Z,1.00
2022-09-13T21:19:03.443Z,1.00
2022-09-13T21:20:35.524Z,1.00
2022-09-13T21:22:08.167Z,1.00
2022-09-13T21:23:41.021Z,1.00
2022-09-13T21:25:15.527Z,1.00
2022-09-13T21:26:47.697Z,1.00
2022-09-13T21:28:19.896Z,1.00
2022-09-13T21:29:51.944Z,1.00
2022-09-13T21:31:26.977Z,1.00
2022-09-13T21:32:59.163Z,1.00
2022-09-13T21:34:31.272Z,1.00
2022-09-13T21:36:05.327Z,1.00
2022-09-13T21:37:37.575Z,1.00
2022-09-13T21:39:09.738Z,1.00
2022-09-13T21:40:41.888Z,1.00
2022-09-13T21:42:15.896Z,1.00
2022-09-13T21:43:48.931Z,29.20
2022-09-13T21:45:21.313Z,66.30
2022-09-13T21:46:53.423Z,33.50
2022-09-13T21:48:25.436Z,97.70
2022-09-13T21:49:57.668Z,99.90
2022-09-13T21:51:35.623Z,99.90
2022-09-13T21:53:07.682Z,99.90